Dugway Proving Grounds, Utah
Current Conditions -  °F | °C
As of 11:58 AM on Tuesday 21 Oct 2014 (Local Time) from KU16 Reporting Station
Clear Clear  
Wind Chill: 58°   Ceiling: Unl
Heat Index: 58°   Visibility: 10mi
Dew Point: 29°   Wind: 22mph
Humidity: 33%   Direction: 320°NW
Pressure: 30.01"   Gusts: 26mph
Location:  40.2°N, 112.93°W
Report Text: KU16 211758Z AUTO 32019G23KT 10SM CLR 14/M02 A3001 RMK AO2 PK WND 32026/1722 SLP788 T01441017 10189 20133 51024 $
Loading
Personal Weather Stations






























Interactive Weather Map
Tropical Storm Tracking
New forecast layout! Learn more

10-Day Weather Forecast

Advertisements
Track Severe Weather on mobile